Terminal Aerodrome Forecast
Issued by NWS El Paso, TX

Current Version | Previous Version | Text Only | Print | Product List | Glossary On
Versions: 1 2 3 4 5 6 7 8 9 10 11 12 13
000
FTUS44 KEPZ 251100
TAFELP
TAF
KELP 251120Z 2512/2612 VRB03KT P6SM SKC
     FM251800 22008KT P6SM FEW250
     FM260300 16006KT P6SM FEW250=

USA.gov is the U.S. government's official web portal to all federal, state and local government web resources and services.